Phoenix Sky Harbor International Airport
KPHX : now visible

Airfield :











YOU CAN JOIN US ON...

 
LOGIN :

Register | Disclaimer

   EN    FR    IT 

 









Legend :    VFR   Marginal VFR   IFR   Intensive IFR   Very Intensive IFR
Visi :
Ceiling :
>= 8 km
>= 3000ft
5 to 8 km
1000 to 3000 ft
1500m to 5 km
500 to 1000 ft
800 to 1500m
200 to 500 ft
< 800m
< 200 ft
Symbols :   Thunderstorms  Fog  Heavy snow  Heavy precipitations  Wind > 20 kt







- Airport Elevation : 1135 ft
- IATA code : PHX


KPHX - Phoenix Sky Harbor International

CURRENT METAR :
  • 211051Z 10007KT 10SM CLR 14/05 A2981 RMK AO2 SLP083 T01440050

EXPIRED METARs :
  • 210951Z 11006KT 10SM CLR 15/05 A2981 RMK AO2 SLP084 T01500050
  • 210851Z 10007KT 10SM CLR 16/04 A2981 RMK AO2 SLP085 T01560044 50000

TAF KPHX
Valid from the 21 at 09:00 until the 22 at 12:00 UTC


210856Z 2109/2212 10007KT P6SM FEW100
FM211200 16007KT P6SM FEW250
FM211700 22010KT P6SM FEW040 FEW250
FM212100 25017G27KT P6SM FEW070 FEW250
KZAB FIR / North America



MET'MAP, your aeronautical weather chart ! - Copyright ORBIFLY December 2007 - Disclaimer

ORBIFLY MET'MAP TEAM :

Programming & Development : Alexandra Zaïnal
Concept & Development : Baudouin d'Aumeries
Co-Development & Prog : Marc-Olivier Méhu
Technical & hardware support : Manuel Goepfert

Contact : metmap@orbifly.com




SOURCES & CREDITS :

   NOAA       Earth
Advisory